sensor_id;sensor_type;location;lat;lon;timestamp;temperature;humidity
26982;DHT22;14533;50.848;4.380;2022-10-16T00:02:00;15.40;99.90
26982;DHT22;14533;50.848;4.380;2022-10-16T00:04:26;15.50;99.90
26982;DHT22;14533;50.848;4.380;2022-10-16T00:06:51;15.30;99.90
26982;DHT22;14533;50.848;4.380;2022-10-16T00:09:17;15.20;99.90
26982;DHT22;14533;50.848;4.380;2022-10-16T00:11:43;15.20;99.90
26982;DHT22;14533;50.848;4.380;2022-10-16T00:14:12;15.20;99.90
26982;DHT22;14533;50.848;4.380;2022-10-16T00:16:39;15.20;99.90
26982;DHT22;14533;50.848;4.380;2022-10-16T00:19:05;15.20;99.90
26982;DHT22;14533;50.848;4.380;2022-10-16T00:21:31;15.30;99.90
26982;DHT22;14533;50.848;4.380;2022-10-16T00:24:00;15.30;99.90
26982;DHT22;14533;50.848;4.380;2022-10-16T00:26:27;15.30;99.90
26982;DHT22;14533;50.848;4.380;2022-10-16T00:28:53;15.30;99.90
26982;DHT22;14533;50.848;4.380;2022-10-16T00:31:21;15.20;99.90
26982;DHT22;14533;50.848;4.380;2022-10-16T00:33:47;15.10;99.90
26982;DHT22;14533;50.848;4.380;2022-10-16T00:36:17;15.00;99.90
26982;DHT22;14533;50.848;4.380;2022-10-16T00:38:44;15.10;99.90
26982;DHT22;14533;50.848;4.380;2022-10-16T00:41:14;15.20;99.90
26982;DHT22;14533;50.848;4.380;2022-10-16T00:43:50;15.20;99.90
26982;DHT22;14533;50.848;4.380;2022-10-16T00:49:17;15.10;99.90
26982;DHT22;14533;50.848;4.380;2022-10-16T00:51:50;15.00;99.90
26982;DHT22;14533;50.848;4.380;2022-10-16T00:54:31;15.10;99.90
26982;DHT22;14533;50.848;4.380;2022-10-16T00:56:59;15.10;99.90
26982;DHT22;14533;50.848;4.380;2022-10-16T01:01:56;15.20;99.90
26982;DHT22;14533;50.848;4.380;2022-10-16T01:04:25;15.00;99.90
26982;DHT22;14533;50.848;4.380;2022-10-16T01:07:09;15.00;99.90
26982;DHT22;14533;50.848;4.380;2022-10-16T01:12:31;15.00;99.90
26982;DHT22;14533;50.848;4.380;2022-10-16T01:15:37;15.10;99.90
26982;DHT22;14533;50.848;4.380;2022-10-16T01:18:09;15.10;99.90
26982;DHT22;14533;50.848;4.380;2022-10-16T01:20:40;15.20;99.90
26982;DHT22;14533;50.848;4.380;2022-10-16T01:25:53;14.90;99.90
26982;DHT22;14533;50.848;4.380;2022-10-16T01:28:30;15.00;99.90
26982;DHT22;14533;50.848;4.380;2022-10-16T01:30:59;15.00;99.90
26982;DHT22;14533;50.848;4.380;2022-10-16T01:33:34;15.10;99.90
26982;DHT22;14533;50.848;4.380;2022-10-16T01:36:15;15.10;99.90
26982;DHT22;14533;50.848;4.380;2022-10-16T01:38:43;15.10;99.90
26982;DHT22;14533;50.848;4.380;2022-10-16T01:41:15;15.00;99.90
26982;DHT22;14533;50.848;4.380;2022-10-16T01:43:49;14.90;99.90
26982;DHT22;14533;50.848;4.380;2022-10-16T01:46:18;14.90;99.90
26982;DHT22;14533;50.848;4.380;2022-10-16T01:48:48;14.90;99.90
26982;DHT22;14533;50.848;4.380;2022-10-16T01:51:17;14.90;99.90
26982;DHT22;14533;50.848;4.380;2022-10-16T01:53:49;15.00;99.90
26982;DHT22;14533;50.848;4.380;2022-10-16T01:56:16;15.10;99.90
26982;DHT22;14533;50.848;4.380;2022-10-16T01:58:46;15.00;99.90
26982;DHT22;14533;50.848;4.380;2022-10-16T02:01:14;15.00;99.90
26982;DHT22;14533;50.848;4.380;2022-10-16T02:03:44;15.10;99.90
26982;DHT22;14533;50.848;4.380;2022-10-16T02:06:12;14.80;99.90
26982;DHT22;14533;50.848;4.380;2022-10-16T02:08:39;14.80;99.90
26982;DHT22;14533;50.848;4.380;2022-10-16T02:11:11;14.90;99.90
26982;DHT22;14533;50.848;4.380;2022-10-16T02:13:53;15.00;99.90
26982;DHT22;14533;50.848;4.380;2022-10-16T02:16:20;15.00;99.90
26982;DHT22;14533;50.848;4.380;2022-10-16T02:18:47;15.00;99.90
26982;DHT22;14533;50.848;4.380;2022-10-16T02:21:22;15.00;99.90
26982;DHT22;14533;50.848;4.380;2022-10-16T02:29:08;14.70;99.90
26982;DHT22;14533;50.848;4.380;2022-10-16T02:31:41;14.70;99.90
26982;DHT22;14533;50.848;4.380;2022-10-16T02:34:10;14.80;99.90
26982;DHT22;14533;50.848;4.380;2022-10-16T02:36:38;14.80;99.90
26982;DHT22;14533;50.848;4.380;2022-10-16T02:39:05;14.80;99.90
26982;DHT22;14533;50.848;4.380;2022-10-16T02:41:31;14.70;99.90
26982;DHT22;14533;50.848;4.380;2022-10-16T02:43:57;14.60;99.90
26982;DHT22;14533;50.848;4.380;2022-10-16T02:46:24;14.70;99.90
26982;DHT22;14533;50.848;4.380;2022-10-16T02:48:50;14.60;99.90
26982;DHT22;14533;50.848;4.380;2022-10-16T02:51:15;14.60;99.90
26982;DHT22;14533;50.848;4.380;2022-10-16T02:53:41;14.60;99.90
26982;DHT22;14533;50.848;4.380;2022-10-16T02:56:07;14.80;99.90
26982;DHT22;14533;50.848;4.380;2022-10-16T02:58:33;14.80;99.90
26982;DHT22;14533;50.848;4.380;2022-10-16T03:00:59;14.70;99.90
26982;DHT22;14533;50.848;4.380;2022-10-16T03:03:25;14.80;99.90
26982;DHT22;14533;50.848;4.380;2022-10-16T03:05:50;14.80;99.90
26982;DHT22;14533;50.848;4.380;2022-10-16T03:08:16;14.70;99.90
26982;DHT22;14533;50.848;4.380;2022-10-16T03:10:42;14.70;99.90
26982;DHT22;14533;50.848;4.380;2022-10-16T03:13:08;14.70;99.90
26982;DHT22;14533;50.848;4.380;2022-10-16T03:15:34;14.60;99.90
26982;DHT22;14533;50.848;4.380;2022-10-16T03:18:00;14.60;99.90
26982;DHT22;14533;50.848;4.380;2022-10-16T03:20:26;14.50;99.90
26982;DHT22;14533;50.848;4.380;2022-10-16T03:22:52;14.50;99.90
26982;DHT22;14533;50.848;4.380;2022-10-16T03:25:17;14.50;99.90
26982;DHT22;14533;50.848;4.380;2022-10-16T03:27:43;14.50;99.90
26982;DHT22;14533;50.848;4.380;2022-10-16T03:30:09;14.50;99.90
26982;DHT22;14533;50.848;4.380;2022-10-16T03:32:35;14.50;99.90
26982;DHT22;14533;50.848;4.380;2022-10-16T03:35:01;14.50;99.90
26982;DHT22;14533;50.848;4.380;2022-10-16T03:37:27;14.60;99.90
26982;DHT22;14533;50.848;4.380;2022-10-16T03:39:52;14.50;99.90
26982;DHT22;14533;50.848;4.380;2022-10-16T03:42:19;14.50;99.90
26982;DHT22;14533;50.848;4.380;2022-10-16T03:44:46;14.50;99.90
26982;DHT22;14533;50.848;4.380;2022-10-16T03:47:12;14.50;99.90
26982;DHT22;14533;50.848;4.380;2022-10-16T03:49:37;14.50;99.90
26982;DHT22;14533;50.848;4.380;2022-10-16T03:52:03;14.50;99.90
26982;DHT22;14533;50.848;4.380;2022-10-16T03:54:28;14.50;99.90
26982;DHT22;14533;50.848;4.380;2022-10-16T03:56:54;14.60;99.90
26982;DHT22;14533;50.848;4.380;2022-10-16T03:59:20;14.50;99.90
26982;DHT22;14533;50.848;4.380;2022-10-16T04:01:46;14.70;99.90
26982;DHT22;14533;50.848;4.380;2022-10-16T04:04:15;14.50;99.90
26982;DHT22;14533;50.848;4.380;2022-10-16T04:06:41;14.50;99.90
26982;DHT22;14533;50.848;4.380;2022-10-16T04:09:06;14.50;99.90
26982;DHT22;14533;50.848;4.380;2022-10-16T04:11:34;14.50;99.90
26982;DHT22;14533;50.848;4.380;2022-10-16T04:14:00;14.60;99.90
26982;DHT22;14533;50.848;4.380;2022-10-16T04:16:25;14.60;99.90
26982;DHT22;14533;50.848;4.380;2022-10-16T04:18:51;14.50;99.90
26982;DHT22;14533;50.848;4.380;2022-10-16T04:21:17;14.50;99.90
26982;DHT22;14533;50.848;4.380;2022-10-16T04:23:42;14.60;99.90
26982;DHT22;14533;50.848;4.380;2022-10-16T04:26:08;14.60;99.90
26982;DHT22;14533;50.848;4.380;2022-10-16T04:28:35;14.60;99.90
26982;DHT22;14533;50.848;4.380;2022-10-16T04:31:04;14.60;99.90
26982;DHT22;14533;50.848;4.380;2022-10-16T04:33:33;14.50;99.90
26982;DHT22;14533;50.848;4.380;2022-10-16T04:36:00;14.50;99.90
26982;DHT22;14533;50.848;4.380;2022-10-16T04:38:26;14.60;99.90
26982;DHT22;14533;50.848;4.380;2022-10-16T04:40:55;14.50;99.90
26982;DHT22;14533;50.848;4.380;2022-10-16T04:43:21;14.50;99.90
26982;DHT22;14533;50.848;4.380;2022-10-16T04:45:48;14.50;99.90
26982;DHT22;14533;50.848;4.380;2022-10-16T04:48:18;14.60;99.90
26982;DHT22;14533;50.848;4.380;2022-10-16T04:50:43;14.50;99.90
26982;DHT22;14533;50.848;4.380;2022-10-16T04:53:09;14.60;99.90
26982;DHT22;14533;50.848;4.380;2022-10-16T04:55:35;14.60;99.90
26982;DHT22;14533;50.848;4.380;2022-10-16T04:58:01;14.50;99.90
26982;DHT22;14533;50.848;4.380;2022-10-16T05:00:26;14.50;99.90
26982;DHT22;14533;50.848;4.380;2022-10-16T05:02:52;14.50;99.90
26982;DHT22;14533;50.848;4.380;2022-10-16T05:05:18;14.60;99.90
26982;DHT22;14533;50.848;4.380;2022-10-16T05:07:47;14.60;99.90
26982;DHT22;14533;50.848;4.380;2022-10-16T05:10:15;14.70;99.90
26982;DHT22;14533;50.848;4.380;2022-10-16T05:12:41;14.70;99.90
26982;DHT22;14533;50.848;4.380;2022-10-16T05:15:07;14.80;99.90
26982;DHT22;14533;50.848;4.380;2022-10-16T05:17:32;14.70;99.90
26982;DHT22;14533;50.848;4.380;2022-10-16T05:19:58;14.60;99.90
26982;DHT22;14533;50.848;4.380;2022-10-16T05:22:24;14.40;99.90
26982;DHT22;14533;50.848;4.380;2022-10-16T05:24:49;14.50;99.90
26982;DHT22;14533;50.848;4.380;2022-10-16T05:27:15;14.50;99.90
26982;DHT22;14533;50.848;4.380;2022-10-16T05:29:45;14.50;99.90
26982;DHT22;14533;50.848;4.380;2022-10-16T05:32:12;14.40;99.90
26982;DHT22;14533;50.848;4.380;2022-10-16T05:34:38;14.30;99.90
26982;DHT22;14533;50.848;4.380;2022-10-16T05:37:04;14.20;99.90
26982;DHT22;14533;50.848;4.380;2022-10-16T05:39:31;14.20;99.90
26982;DHT22;14533;50.848;4.380;2022-10-16T05:41:57;14.20;99.90
26982;DHT22;14533;50.848;4.380;2022-10-16T05:44:23;14.10;99.90
26982;DHT22;14533;50.848;4.380;2022-10-16T05:46:49;14.10;99.90
26982;DHT22;14533;50.848;4.380;2022-10-16T05:49:15;14.20;99.90
26982;DHT22;14533;50.848;4.380;2022-10-16T05:51:40;14.20;99.90
26982;DHT22;14533;50.848;4.380;2022-10-16T05:54:07;14.20;99.90
26982;DHT22;14533;50.848;4.380;2022-10-16T05:56:33;14.20;99.90
26982;DHT22;14533;50.848;4.380;2022-10-16T05:58:59;14.40;99.90
26982;DHT22;14533;50.848;4.380;2022-10-16T06:01:25;14.30;99.90
26982;DHT22;14533;50.848;4.380;2022-10-16T06:03:51;14.30;99.90
26982;DHT22;14533;50.848;4.380;2022-10-16T06:06:20;14.20;99.90
26982;DHT22;14533;50.848;4.380;2022-10-16T06:08:47;14.20;99.90
26982;DHT22;14533;50.848;4.380;2022-10-16T06:11:23;14.30;99.90
26982;DHT22;14533;50.848;4.380;2022-10-16T06:13:50;14.30;99.90
26982;DHT22;14533;50.848;4.380;2022-10-16T06:16:16;14.20;99.90
26982;DHT22;14533;50.848;4.380;2022-10-16T06:18:41;14.40;99.90
26982;DHT22;14533;50.848;4.380;2022-10-16T06:21:13;14.40;99.90
26982;DHT22;14533;50.848;4.380;2022-10-16T06:23:40;14.50;99.90
26982;DHT22;14533;50.848;4.380;2022-10-16T06:26:10;14.40;99.90
26982;DHT22;14533;50.848;4.380;2022-10-16T06:28:37;14.50;99.90
26982;DHT22;14533;50.848;4.380;2022-10-16T06:31:04;14.50;99.90
26982;DHT22;14533;50.848;4.380;2022-10-16T06:33:31;14.50;99.90
26982;DHT22;14533;50.848;4.380;2022-10-16T06:36:07;14.60;99.90
26982;DHT22;14533;50.848;4.380;2022-10-16T06:38:34;14.50;99.90
26982;DHT22;14533;50.848;4.380;2022-10-16T06:41:00;14.60;99.90
26982;DHT22;14533;50.848;4.380;2022-10-16T06:43:26;14.60;99.90
26982;DHT22;14533;50.848;4.380;2022-10-16T06:45:56;14.70;99.90
26982;DHT22;14533;50.848;4.380;2022-10-16T06:48:23;14.60;99.90
26982;DHT22;14533;50.848;4.380;2022-10-16T06:50:58;14.70;99.90
26982;DHT22;14533;50.848;4.380;2022-10-16T06:53:24;14.90;99.90
26982;DHT22;14533;50.848;4.380;2022-10-16T06:55:51;14.90;99.90
26982;DHT22;14533;50.848;4.380;2022-10-16T06:58:16;14.90;99.90
26982;DHT22;14533;50.848;4.380;2022-10-16T07:00:42;14.90;99.90
26982;DHT22;14533;50.848;4.380;2022-10-16T07:03:08;15.00;99.90
26982;DHT22;14533;50.848;4.380;2022-10-16T07:05:38;15.00;99.90
26982;DHT22;14533;50.848;4.380;2022-10-16T07:08:04;15.10;99.90
26982;DHT22;14533;50.848;4.380;2022-10-16T07:10:31;15.00;99.90
26982;DHT22;14533;50.848;4.380;2022-10-16T07:12:57;15.00;99.90
26982;DHT22;14533;50.848;4.380;2022-10-16T07:15:25;15.00;99.90
26982;DHT22;14533;50.848;4.380;2022-10-16T07:17:51;15.10;99.90
26982;DHT22;14533;50.848;4.380;2022-10-16T07:20:18;15.20;99.90
26982;DHT22;14533;50.848;4.380;2022-10-16T07:22:44;15.10;99.90
26982;DHT22;14533;50.848;4.380;2022-10-16T07:25:10;15.00;99.90
26982;DHT22;14533;50.848;4.380;2022-10-16T07:27:37;15.00;99.90
26982;DHT22;14533;50.848;4.380;2022-10-16T07:30:04;15.00;99.90
26982;DHT22;14533;50.848;4.380;2022-10-16T07:32:33;14.80;99.90
26982;DHT22;14533;50.848;4.380;2022-10-16T07:35:00;15.00;99.90
26982;DHT22;14533;50.848;4.380;2022-10-16T07:37:25;15.00;99.90
26982;DHT22;14533;50.848;4.380;2022-10-16T07:39:51;15.10;99.90
26982;DHT22;14533;50.848;4.380;2022-10-16T07:42:17;15.20;99.90
26982;DHT22;14533;50.848;4.380;2022-10-16T07:44:43;15.20;99.90
26982;DHT22;14533;50.848;4.380;2022-10-16T07:47:10;15.20;99.90
26982;DHT22;14533;50.848;4.380;2022-10-16T07:49:36;15.30;99.90
26982;DHT22;14533;50.848;4.380;2022-10-16T07:52:02;15.30;99.90
26982;DHT22;14533;50.848;4.380;2022-10-16T07:54:28;15.40;99.90
26982;DHT22;14533;50.848;4.380;2022-10-16T07:56:54;15.40;99.90
26982;DHT22;14533;50.848;4.380;2022-10-16T07:59:19;15.40;99.90
26982;DHT22;14533;50.848;4.380;2022-10-16T08:01:45;15.40;99.90
26982;DHT22;14533;50.848;4.380;2022-10-16T08:04:13;15.40;99.90
26982;DHT22;14533;50.848;4.380;2022-10-16T08:06:40;15.50;99.90
26982;DHT22;14533;50.848;4.380;2022-10-16T08:09:07;15.40;99.90
26982;DHT22;14533;50.848;4.380;2022-10-16T08:11:33;15.40;99.90
26982;DHT22;14533;50.848;4.380;2022-10-16T08:13:59;15.40;99.90
26982;DHT22;14533;50.848;4.380;2022-10-16T08:16:24;15.40;99.90
26982;DHT22;14533;50.848;4.380;2022-10-16T08:18:50;15.40;99.90
26982;DHT22;14533;50.848;4.380;2022-10-16T08:21:21;15.50;99.90
26982;DHT22;14533;50.848;4.380;2022-10-16T08:23:49;15.50;99.90
26982;DHT22;14533;50.848;4.380;2022-10-16T08:26:15;15.50;99.90
26982;DHT22;14533;50.848;4.380;2022-10-16T08:28:49;15.50;99.90
26982;DHT22;14533;50.848;4.380;2022-10-16T08:31:17;15.60;99.90
26982;DHT22;14533;50.848;4.380;2022-10-16T08:33:44;15.60;99.90
26982;DHT22;14533;50.848;4.380;2022-10-16T08:36:12;15.60;99.90
26982;DHT22;14533;50.848;4.380;2022-10-16T08:38:39;15.60;99.90
26982;DHT22;14533;50.848;4.380;2022-10-16T08:47:20;15.80;99.90
26982;DHT22;14533;50.848;4.380;2022-10-16T08:49:42;16.00;99.90
26982;DHT22;14533;50.848;4.380;2022-10-16T08:52:12;16.00;99.90
26982;DHT22;14533;50.848;4.380;2022-10-16T08:54:43;16.10;99.90
26982;DHT22;14533;50.848;4.380;2022-10-16T08:57:16;16.00;99.90
26982;DHT22;14533;50.848;4.380;2022-10-16T08:59:44;16.00;99.90
26982;DHT22;14533;50.848;4.380;2022-10-16T09:02:40;16.10;99.90
26982;DHT22;14533;50.848;4.380;2022-10-16T09:08:19;16.20;99.90
26982;DHT22;14533;50.848;4.380;2022-10-16T09:16:49;16.40;99.90
26982;DHT22;14533;50.848;4.380;2022-10-16T09:19:31;16.50;99.90
26982;DHT22;14533;50.848;4.380;2022-10-16T09:22:01;16.60;99.90
26982;DHT22;14533;50.848;4.380;2022-10-16T09:24:30;16.60;99.90
26982;DHT22;14533;50.848;4.380;2022-10-16T09:26:57;16.80;99.90
26982;DHT22;14533;50.848;4.380;2022-10-16T09:29:23;16.80;99.90
26982;DHT22;14533;50.848;4.380;2022-10-16T09:31:51;16.80;99.90
26982;DHT22;14533;50.848;4.380;2022-10-16T09:34:33;17.00;99.90
26982;DHT22;14533;50.848;4.380;2022-10-16T09:37:03;17.00;99.90
26982;DHT22;14533;50.848;4.380;2022-10-16T09:39:50;17.00;99.90
26982;DHT22;14533;50.848;4.380;2022-10-16T09:42:32;17.10;99.90
26982;DHT22;14533;50.848;4.380;2022-10-16T09:45:01;17.20;99.90
26982;DHT22;14533;50.848;4.380;2022-10-16T09:47:30;17.30;99.90
26982;DHT22;14533;50.848;4.380;2022-10-16T09:49:58;17.50;99.90
26982;DHT22;14533;50.848;4.380;2022-10-16T09:52:29;17.70;99.90
26982;DHT22;14533;50.848;4.380;2022-10-16T09:55:30;17.70;99.90
26982;DHT22;14533;50.848;4.380;2022-10-16T09:57:53;18.00;99.90
26982;DHT22;14533;50.848;4.380;2022-10-16T10:00:23;18.30;99.90
26982;DHT22;14533;50.848;4.380;2022-10-16T10:02:49;18.50;99.90
26982;DHT22;14533;50.848;4.380;2022-10-16T10:05:20;18.90;99.90
26982;DHT22;14533;50.848;4.380;2022-10-16T10:07:57;19.10;99.90
26982;DHT22;14533;50.848;4.380;2022-10-16T10:10:29;19.10;99.90
26982;DHT22;14533;50.848;4.380;2022-10-16T10:12:56;19.20;99.90
26982;DHT22;14533;50.848;4.380;2022-10-16T10:15:23;19.30;99.90
26982;DHT22;14533;50.848;4.380;2022-10-16T10:17:54;19.30;99.90
26982;DHT22;14533;50.848;4.380;2022-10-16T10:20:30;19.40;99.90
26982;DHT22;14533;50.848;4.380;2022-10-16T10:22:58;19.70;99.90
26982;DHT22;14533;50.848;4.380;2022-10-16T10:31:11;20.00;99.90
26982;DHT22;14533;50.848;4.380;2022-10-16T10:37:11;20.00;99.90
26982;DHT22;14533;50.848;4.380;2022-10-16T10:39:47;20.20;99.90
26982;DHT22;14533;50.848;4.380;2022-10-16T10:42:35;20.40;99.90
26982;DHT22;14533;50.848;4.380;2022-10-16T10:45:28;20.40;99.90
26982;DHT22;14533;50.848;4.380;2022-10-16T10:51:07;20.60;99.90
26982;DHT22;14533;50.848;4.380;2022-10-16T10:56:56;21.10;99.90
26982;DHT22;14533;50.848;4.380;2022-10-16T11:07:34;20.50;99.90
26982;DHT22;14533;50.848;4.380;2022-10-16T11:10:29;20.70;99.90
26982;DHT22;14533;50.848;4.380;2022-10-16T11:13:16;20.70;99.90
26982;DHT22;14533;50.848;4.380;2022-10-16T11:15:48;20.70;99.90
26982;DHT22;14533;50.848;4.380;2022-10-16T11:18:30;20.60;99.90
26982;DHT22;14533;50.848;4.380;2022-10-16T11:21:02;20.60;99.90
26982;DHT22;14533;50.848;4.380;2022-10-16T11:26:14;20.90;99.90
26982;DHT22;14533;50.848;4.380;2022-10-16T11:28:50;20.90;99.90
26982;DHT22;14533;50.848;4.380;2022-10-16T11:31:21;20.90;99.90
26982;DHT22;14533;50.848;4.380;2022-10-16T11:36:58;21.70;99.90
26982;DHT22;14533;50.848;4.380;2022-10-16T11:39:29;21.70;99.90
26982;DHT22;14533;50.848;4.380;2022-10-16T11:42:07;21.90;99.90
26982;DHT22;14533;50.848;4.380;2022-10-16T11:50:20;22.00;99.90
26982;DHT22;14533;50.848;4.380;2022-10-16T11:55:41;21.90;99.90
26982;DHT22;14533;50.848;4.380;2022-10-16T12:08:52;21.80;99.90
26982;DHT22;14533;50.848;4.380;2022-10-16T12:16:59;22.20;99.90
26982;DHT22;14533;50.848;4.380;2022-10-16T12:19:28;22.20;99.90
26982;DHT22;14533;50.848;4.380;2022-10-16T12:21:58;22.20;99.90
26982;DHT22;14533;50.848;4.380;2022-10-16T12:24:39;21.80;99.90
26982;DHT22;14533;50.848;4.380;2022-10-16T12:27:31;21.90;99.90
26982;DHT22;14533;50.848;4.380;2022-10-16T12:30:00;21.80;99.90
26982;DHT22;14533;50.848;4.380;2022-10-16T12:32:34;21.90;99.90
26982;DHT22;14533;50.848;4.380;2022-10-16T12:35:02;21.60;99.90
26982;DHT22;14533;50.848;4.380;2022-10-16T12:37:34;21.30;99.90
26982;DHT22;14533;50.848;4.380;2022-10-16T12:40:12;21.10;99.90
26982;DHT22;14533;50.848;4.380;2022-10-16T12:42:43;20.90;99.90
26982;DHT22;14533;50.848;4.380;2022-10-16T12:45:29;21.00;99.90
26982;DHT22;14533;50.848;4.380;2022-10-16T12:48:00;20.80;99.90
26982;DHT22;14533;50.848;4.380;2022-10-16T12:50:31;20.70;99.90
26982;DHT22;14533;50.848;4.380;2022-10-16T12:52:57;20.60;99.90
26982;DHT22;14533;50.848;4.380;2022-10-16T12:55:23;20.60;99.90
26982;DHT22;14533;50.848;4.380;2022-10-16T13:20:11;21.20;99.90
26982;DHT22;14533;50.848;4.380;2022-10-16T13:28:11;20.80;99.90
26982;DHT22;14533;50.848;4.380;2022-10-16T13:30:42;20.50;99.90
26982;DHT22;14533;50.848;4.380;2022-10-16T13:35:54;19.90;99.90
26982;DHT22;14533;50.848;4.380;2022-10-16T13:38:25;20.20;99.90
26982;DHT22;14533;50.848;4.380;2022-10-16T13:40:56;20.50;99.90
26982;DHT22;14533;50.848;4.380;2022-10-16T13:43:26;20.30;99.90
26982;DHT22;14533;50.848;4.380;2022-10-16T13:45:59;20.20;99.90
26982;DHT22;14533;50.848;4.380;2022-10-16T13:48:28;20.00;99.90
26982;DHT22;14533;50.848;4.380;2022-10-16T13:51:13;20.10;99.90
26982;DHT22;14533;50.848;4.380;2022-10-16T13:53:39;20.40;99.90
26982;DHT22;14533;50.848;4.380;2022-10-16T13:56:07;20.30;99.90
26982;DHT22;14533;50.848;4.380;2022-10-16T13:58:35;20.20;99.90
26982;DHT22;14533;50.848;4.380;2022-10-16T14:01:03;20.20;99.90
26982;DHT22;14533;50.848;4.380;2022-10-16T14:03:31;20.10;99.90
26982;DHT22;14533;50.848;4.380;2022-10-16T14:06:05;20.30;99.90
26982;DHT22;14533;50.848;4.380;2022-10-16T14:08:35;20.40;99.90
26982;DHT22;14533;50.848;4.380;2022-10-16T14:11:02;20.40;99.90
26982;DHT22;14533;50.848;4.380;2022-10-16T14:13:38;20.50;99.90
26982;DHT22;14533;50.848;4.380;2022-10-16T14:16:10;20.50;99.90
26982;DHT22;14533;50.848;4.380;2022-10-16T14:18:37;20.50;99.90
26982;DHT22;14533;50.848;4.380;2022-10-16T14:21:13;20.50;99.90
26982;DHT22;14533;50.848;4.380;2022-10-16T14:23:41;20.40;99.90
26982;DHT22;14533;50.848;4.380;2022-10-16T14:28:37;20.30;99.90
26982;DHT22;14533;50.848;4.380;2022-10-16T14:31:28;20.10;99.90
26982;DHT22;14533;50.848;4.380;2022-10-16T14:33:54;20.00;99.90
26982;DHT22;14533;50.848;4.380;2022-10-16T14:36:27;19.80;99.90
26982;DHT22;14533;50.848;4.380;2022-10-16T14:41:24;19.80;99.90
26982;DHT22;14533;50.848;4.380;2022-10-16T14:43:52;19.70;99.90
26982;DHT22;14533;50.848;4.380;2022-10-16T14:46:21;19.80;99.90
26982;DHT22;14533;50.848;4.380;2022-10-16T14:48:58;19.70;99.90
26982;DHT22;14533;50.848;4.380;2022-10-16T14:51:26;19.80;99.90
26982;DHT22;14533;50.848;4.380;2022-10-16T14:53:52;19.80;99.90
26982;DHT22;14533;50.848;4.380;2022-10-16T14:56:23;19.80;99.90
26982;DHT22;14533;50.848;4.380;2022-10-16T14:58:52;19.90;99.90
26982;DHT22;14533;50.848;4.380;2022-10-16T15:01:18;19.80;99.90
26982;DHT22;14533;50.848;4.380;2022-10-16T15:03:47;19.60;99.90
26982;DHT22;14533;50.848;4.380;2022-10-16T15:06:14;19.60;99.90
26982;DHT22;14533;50.848;4.380;2022-10-16T15:08:40;19.80;99.90
26982;DHT22;14533;50.848;4.380;2022-10-16T15:11:14;19.50;99.90
26982;DHT22;14533;50.848;4.380;2022-10-16T15:13:41;19.60;99.90
26982;DHT22;14533;50.848;4.380;2022-10-16T15:16:13;19.50;99.90
26982;DHT22;14533;50.848;4.380;2022-10-16T15:18:40;19.60;99.90
26982;DHT22;14533;50.848;4.380;2022-10-16T15:21:07;19.40;99.90
26982;DHT22;14533;50.848;4.380;2022-10-16T15:23:39;19.40;99.90
26982;DHT22;14533;50.848;4.380;2022-10-16T15:26:04;19.40;99.90
26982;DHT22;14533;50.848;4.380;2022-10-16T15:28:31;19.30;99.90
26982;DHT22;14533;50.848;4.380;2022-10-16T15:30:59;19.30;99.90
26982;DHT22;14533;50.848;4.380;2022-10-16T15:33:27;19.20;99.90
26982;DHT22;14533;50.848;4.380;2022-10-16T15:35:55;19.20;99.90
26982;DHT22;14533;50.848;4.380;2022-10-16T15:38:22;19.20;99.90
26982;DHT22;14533;50.848;4.380;2022-10-16T15:40:49;19.20;99.90
26982;DHT22;14533;50.848;4.380;2022-10-16T15:43:15;19.30;99.90
26982;DHT22;14533;50.848;4.380;2022-10-16T15:45:41;19.50;99.90
26982;DHT22;14533;50.848;4.380;2022-10-16T15:48:09;19.50;99.90
26982;DHT22;14533;50.848;4.380;2022-10-16T15:50:37;19.50;99.90
26982;DHT22;14533;50.848;4.380;2022-10-16T15:53:03;19.40;99.90
26982;DHT22;14533;50.848;4.380;2022-10-16T15:55:29;19.30;99.90
26982;DHT22;14533;50.848;4.380;2022-10-16T15:57:55;19.30;99.90
26982;DHT22;14533;50.848;4.380;2022-10-16T16:00:20;19.20;99.90
26982;DHT22;14533;50.848;4.380;2022-10-16T16:02:53;19.20;99.90
26982;DHT22;14533;50.848;4.380;2022-10-16T16:05:21;19.20;99.90
26982;DHT22;14533;50.848;4.380;2022-10-16T16:07:47;19.10;99.90
26982;DHT22;14533;50.848;4.380;2022-10-16T16:10:15;19.10;99.90
26982;DHT22;14533;50.848;4.380;2022-10-16T16:12:41;18.90;99.90
26982;DHT22;14533;50.848;4.380;2022-10-16T16:15:08;18.90;99.90
26982;DHT22;14533;50.848;4.380;2022-10-16T16:17:34;18.80;99.90
26982;DHT22;14533;50.848;4.380;2022-10-16T16:20:00;18.90;99.90
26982;DHT22;14533;50.848;4.380;2022-10-16T16:22:27;18.90;99.90
26982;DHT22;14533;50.848;4.380;2022-10-16T16:24:53;18.90;99.90
26982;DHT22;14533;50.848;4.380;2022-10-16T16:27:19;18.90;99.90
26982;DHT22;14533;50.848;4.380;2022-10-16T16:29:46;18.90;99.90
26982;DHT22;14533;50.848;4.380;2022-10-16T16:32:12;19.00;99.90
26982;DHT22;14533;50.848;4.380;2022-10-16T16:34:38;19.00;99.90
26982;DHT22;14533;50.848;4.380;2022-10-16T16:37:04;19.10;99.90
26982;DHT22;14533;50.848;4.380;2022-10-16T16:39:30;19.00;99.90
26982;DHT22;14533;50.848;4.380;2022-10-16T16:41:57;19.00;99.90
26982;DHT22;14533;50.848;4.380;2022-10-16T16:44:24;19.00;99.90
26982;DHT22;14533;50.848;4.380;2022-10-16T16:46:51;18.90;99.90
26982;DHT22;14533;50.848;4.380;2022-10-16T16:49:19;18.90;99.90
26982;DHT22;14533;50.848;4.380;2022-10-16T16:51:44;18.90;99.90
26982;DHT22;14533;50.848;4.380;2022-10-16T16:54:11;18.90;99.90
26982;DHT22;14533;50.848;4.380;2022-10-16T16:56:38;18.90;99.90
26982;DHT22;14533;50.848;4.380;2022-10-16T16:59:05;19.10;99.90
26982;DHT22;14533;50.848;4.380;2022-10-16T17:01:32;19.20;99.90
26982;DHT22;14533;50.848;4.380;2022-10-16T17:03:58;19.30;99.90
26982;DHT22;14533;50.848;4.380;2022-10-16T17:06:27;19.30;99.90
26982;DHT22;14533;50.848;4.380;2022-10-16T17:08:53;19.10;99.90
26982;DHT22;14533;50.848;4.380;2022-10-16T17:11:23;18.80;99.90
26982;DHT22;14533;50.848;4.380;2022-10-16T17:13:49;18.40;99.90
26982;DHT22;14533;50.848;4.380;2022-10-16T17:16:16;18.20;99.90
26982;DHT22;14533;50.848;4.380;2022-10-16T17:18:42;18.00;99.90
26982;DHT22;14533;50.848;4.380;2022-10-16T17:21:09;17.80;99.90
26982;DHT22;14533;50.848;4.380;2022-10-16T17:23:36;17.70;99.90
26982;DHT22;14533;50.848;4.380;2022-10-16T17:26:15;17.60;99.90
26982;DHT22;14533;50.848;4.380;2022-10-16T17:28:42;17.50;99.90
26982;DHT22;14533;50.848;4.380;2022-10-16T17:31:21;17.40;99.90
26982;DHT22;14533;50.848;4.380;2022-10-16T17:33:48;17.40;99.90
26982;DHT22;14533;50.848;4.380;2022-10-16T17:36:18;17.50;99.90
26982;DHT22;14533;50.848;4.380;2022-10-16T17:38:46;17.50;99.90
26982;DHT22;14533;50.848;4.380;2022-10-16T17:41:21;17.30;99.90
26982;DHT22;14533;50.848;4.380;2022-10-16T17:43:47;17.20;99.90